sensor_id;sensor_type;location;lat;lon;timestamp;P1;durP1;ratioP1;P2;durP2;ratioP2
30970;SDS011;17651;52.262;10.498;2024-02-21T10:10:26;13.18;;;5.38;;
30970;SDS011;17651;52.262;10.498;2024-02-21T10:12:47;13.98;;;5.35;;
30970;SDS011;17651;52.262;10.498;2024-02-21T10:15:02;12.63;;;5.90;;
30970;SDS011;17651;52.262;10.498;2024-02-21T10:17:16;18.80;;;7.22;;
30970;SDS011;17651;52.262;10.498;2024-02-21T10:19:29;10.88;;;5.60;;
30970;SDS011;17651;52.262;10.498;2024-02-21T10:21:40;15.10;;;6.13;;
30970;SDS011;17651;52.262;10.498;2024-02-21T10:23:51;10.73;;;5.20;;
30970;SDS011;17651;52.262;10.498;2024-02-21T10:26:05;16.52;;;5.63;;
30970;SDS011;17651;52.262;10.498;2024-02-21T10:28:16;12.95;;;6.10;;
30970;SDS011;17651;52.262;10.498;2024-02-21T10:30:33;15.85;;;7.28;;
30970;SDS011;17651;52.262;10.498;2024-02-21T10:32:50;10.57;;;5.65;;
30970;SDS011;17651;52.262;10.498;2024-02-21T10:35:02;15.32;;;8.25;;
30970;SDS011;17651;52.262;10.498;2024-02-21T10:37:14;14.80;;;5.90;;
30970;SDS011;17651;52.262;10.498;2024-02-21T10:39:25;16.17;;;6.82;;
30970;SDS011;17651;52.262;10.498;2024-02-21T10:41:36;13.45;;;6.57;;
30970;SDS011;17651;52.262;10.498;2024-02-21T10:43:52;12.65;;;7.18;;
30970;SDS011;17651;52.262;10.498;2024-02-21T10:46:03;16.15;;;7.30;;
30970;SDS011;17651;52.262;10.498;2024-02-21T10:48:16;16.90;;;6.30;;
30970;SDS011;17651;52.262;10.498;2024-02-21T10:50:44;10.60;;;6.80;;
30970;SDS011;17651;52.262;10.498;2024-02-21T10:55:16;14.32;;;7.72;;
30970;SDS011;17651;52.262;10.498;2024-02-21T10:57:31;15.93;;;8.63;;
30970;SDS011;17651;52.262;10.498;2024-02-21T10:59:44;13.65;;;6.35;;
30970;SDS011;17651;52.262;10.498;2024-02-21T11:01:55;15.25;;;6.60;;
30970;SDS011;17651;52.262;10.498;2024-02-21T11:04:07;14.65;;;6.22;;
30970;SDS011;17651;52.262;10.498;2024-02-21T11:06:18;10.70;;;6.57;;
30970;SDS011;17651;52.262;10.498;2024-02-21T11:08:30;15.43;;;6.38;;
30970;SDS011;17651;52.262;10.498;2024-02-21T11:10:45;12.35;;;6.55;;
30970;SDS011;17651;52.262;10.498;2024-02-21T11:15:17;15.50;;;6.43;;
30970;SDS011;17651;52.262;10.498;2024-02-21T11:17:28;14.93;;;7.20;;
30970;SDS011;17651;52.262;10.498;2024-02-21T11:19:39;12.98;;;5.75;;
30970;SDS011;17651;52.262;10.498;2024-02-21T11:21:50;13.40;;;5.40;;
30970;SDS011;17651;52.262;10.498;2024-02-21T11:24:03;8.30;;;4.93;;
30970;SDS011;17651;52.262;10.498;2024-02-21T11:26:20;8.45;;;4.60;;
30970;SDS011;17651;52.262;10.498;2024-02-21T11:28:31;9.43;;;4.85;;
30970;SDS011;17651;52.262;10.498;2024-02-21T11:30:42;11.52;;;5.13;;
30970;SDS011;17651;52.262;10.498;2024-02-21T11:33:03;11.77;;;4.72;;
30970;SDS011;17651;52.262;10.498;2024-02-21T11:35:20;11.60;;;5.15;;
30970;SDS011;17651;52.262;10.498;2024-02-21T11:37:32;12.35;;;5.72;;
30970;SDS011;17651;52.262;10.498;2024-02-21T11:39:43;9.35;;;5.07;;
30970;SDS011;17651;52.262;10.498;2024-02-21T11:44:12;9.80;;;5.20;;
30970;SDS011;17651;52.262;10.498;2024-02-21T11:46:23;14.13;;;5.20;;
30970;SDS011;17651;52.262;10.498;2024-02-21T11:48:34;13.20;;;5.25;;
30970;SDS011;17651;52.262;10.498;2024-02-21T11:50:52;9.95;;;4.95;;
30970;SDS011;17651;52.262;10.498;2024-02-21T11:53:05;6.60;;;4.10;;
30970;SDS011;17651;52.262;10.498;2024-02-21T11:55:16;13.18;;;6.30;;
30970;SDS011;17651;52.262;10.498;2024-02-21T11:57:27;15.65;;;4.97;;
30970;SDS011;17651;52.262;10.498;2024-02-21T11:59:39;13.23;;;5.30;;
30970;SDS011;17651;52.262;10.498;2024-02-21T12:01:50;13.77;;;5.78;;
30970;SDS011;17651;52.262;10.498;2024-02-21T12:04:02;9.30;;;4.55;;
30970;SDS011;17651;52.262;10.498;2024-02-21T12:06:13;10.60;;;5.40;;
30970;SDS011;17651;52.262;10.498;2024-02-21T12:08:24;7.63;;;5.25;;
30970;SDS011;17651;52.262;10.498;2024-02-21T12:10:36;12.93;;;5.13;;
30970;SDS011;17651;52.262;10.498;2024-02-21T12:12:47;6.75;;;5.10;;
30970;SDS011;17651;52.262;10.498;2024-02-21T12:14:58;11.32;;;5.65;;
30970;SDS011;17651;52.262;10.498;2024-02-21T12:17:09;8.30;;;5.72;;
30970;SDS011;17651;52.262;10.498;2024-02-21T12:19:20;12.88;;;5.38;;
30970;SDS011;17651;52.262;10.498;2024-02-21T12:21:32;10.07;;;5.05;;
30970;SDS011;17651;52.262;10.498;2024-02-21T12:23:46;9.20;;;4.88;;
30970;SDS011;17651;52.262;10.498;2024-02-21T12:25:59;9.75;;;4.13;;
30970;SDS011;17651;52.262;10.498;2024-02-21T12:28:10;11.68;;;5.40;;
30970;SDS011;17651;52.262;10.498;2024-02-21T12:30:21;10.80;;;5.00;;
30970;SDS011;17651;52.262;10.498;2024-02-21T12:32:32;9.25;;;5.05;;
30970;SDS011;17651;52.262;10.498;2024-02-21T12:34:43;8.60;;;5.22;;
30970;SDS011;17651;52.262;10.498;2024-02-21T12:36:54;8.70;;;4.40;;
30970;SDS011;17651;52.262;10.498;2024-02-21T12:39:05;9.30;;;5.60;;
30970;SDS011;17651;52.262;10.498;2024-02-21T12:41:16;10.13;;;5.20;;
30970;SDS011;17651;52.262;10.498;2024-02-21T12:43:27;8.02;;;6.13;;
30970;SDS011;17651;52.262;10.498;2024-02-21T12:45:39;7.90;;;5.72;;
30970;SDS011;17651;52.262;10.498;2024-02-21T12:47:50;14.45;;;6.18;;
30970;SDS011;17651;52.262;10.498;2024-02-21T12:50:01;9.65;;;5.63;;
30970;SDS011;17651;52.262;10.498;2024-02-21T12:52:13;14.45;;;6.57;;
30970;SDS011;17651;52.262;10.498;2024-02-21T12:54:24;12.55;;;6.00;;
30970;SDS011;17651;52.262;10.498;2024-02-21T12:56:36;11.50;;;6.38;;
30970;SDS011;17651;52.262;10.498;2024-02-21T12:58:47;9.60;;;5.25;;
30970;SDS011;17651;52.262;10.498;2024-02-21T13:00:58;13.57;;;6.28;;
30970;SDS011;17651;52.262;10.498;2024-02-21T13:03:10;10.77;;;6.38;;
30970;SDS011;17651;52.262;10.498;2024-02-21T13:05:21;12.25;;;7.13;;
30970;SDS011;17651;52.262;10.498;2024-02-21T13:07:33;15.02;;;6.63;;
30970;SDS011;17651;52.262;10.498;2024-02-21T13:09:44;15.48;;;6.05;;
30970;SDS011;17651;52.262;10.498;2024-02-21T13:11:55;12.82;;;6.47;;
30970;SDS011;17651;52.262;10.498;2024-02-21T13:14:06;13.13;;;6.15;;
30970;SDS011;17651;52.262;10.498;2024-02-21T13:16:18;9.27;;;5.97;;
30970;SDS011;17651;52.262;10.498;2024-02-21T13:18:31;12.48;;;5.82;;
30970;SDS011;17651;52.262;10.498;2024-02-21T13:20:42;13.10;;;5.72;;
30970;SDS011;17651;52.262;10.498;2024-02-21T13:22:53;11.88;;;5.85;;
30970;SDS011;17651;52.262;10.498;2024-02-21T13:25:05;11.25;;;5.50;;
30970;SDS011;17651;52.262;10.498;2024-02-21T13:27:20;9.93;;;5.15;;
30970;SDS011;17651;52.262;10.498;2024-02-21T13:29:31;8.23;;;5.28;;
30970;SDS011;17651;52.262;10.498;2024-02-21T13:31:43;8.10;;;4.82;;
30970;SDS011;17651;52.262;10.498;2024-02-21T13:33:55;13.88;;;5.05;;
30970;SDS011;17651;52.262;10.498;2024-02-21T13:36:06;9.07;;;5.72;;
30970;SDS011;17651;52.262;10.498;2024-02-21T13:38:17;8.77;;;5.25;;
30970;SDS011;17651;52.262;10.498;2024-02-21T13:40:29;13.43;;;6.45;;
30970;SDS011;17651;52.262;10.498;2024-02-21T13:42:40;10.65;;;5.70;;
30970;SDS011;17651;52.262;10.498;2024-02-21T13:44:51;12.43;;;5.57;;
30970;SDS011;17651;52.262;10.498;2024-02-21T13:47:02;9.70;;;5.30;;
30970;SDS011;17651;52.262;10.498;2024-02-21T13:49:15;10.68;;;5.72;;
30970;SDS011;17651;52.262;10.498;2024-02-21T13:51:26;11.52;;;5.10;;
30970;SDS011;17651;52.262;10.498;2024-02-21T13:53:37;7.75;;;3.83;;
30970;SDS011;17651;52.262;10.498;2024-02-21T13:55:49;12.60;;;4.93;;
30970;SDS011;17651;52.262;10.498;2024-02-21T13:58:00;12.40;;;4.78;;
30970;SDS011;17651;52.262;10.498;2024-02-21T14:00:11;13.20;;;4.00;;
30970;SDS011;17651;52.262;10.498;2024-02-21T14:02:22;10.88;;;4.68;;
30970;SDS011;17651;52.262;10.498;2024-02-21T14:04:34;10.10;;;3.75;;
30970;SDS011;17651;52.262;10.498;2024-02-21T14:06:45;10.23;;;4.43;;
30970;SDS011;17651;52.262;10.498;2024-02-21T14:08:56;6.75;;;3.83;;
30970;SDS011;17651;52.262;10.498;2024-02-21T14:11:07;7.07;;;4.03;;
30970;SDS011;17651;52.262;10.498;2024-02-21T14:13:19;8.82;;;3.40;;
30970;SDS011;17651;52.262;10.498;2024-02-21T14:15:30;10.05;;;4.20;;
30970;SDS011;17651;52.262;10.498;2024-02-21T14:17:42;10.02;;;3.50;;
30970;SDS011;17651;52.262;10.498;2024-02-21T14:19:53;5.38;;;3.80;;
30970;SDS011;17651;52.262;10.498;2024-02-21T14:22:04;8.75;;;3.72;;
30970;SDS011;17651;52.262;10.498;2024-02-21T14:24:16;5.88;;;3.65;;
30970;SDS011;17651;52.262;10.498;2024-02-21T14:26:27;6.97;;;3.85;;
30970;SDS011;17651;52.262;10.498;2024-02-21T14:28:38;7.93;;;3.83;;
30970;SDS011;17651;52.262;10.498;2024-02-21T14:30:49;8.70;;;4.15;;
30970;SDS011;17651;52.262;10.498;2024-02-21T14:33:03;7.20;;;3.85;;
30970;SDS011;17651;52.262;10.498;2024-02-21T14:35:14;12.05;;;3.80;;
30970;SDS011;17651;52.262;10.498;2024-02-21T14:37:26;7.47;;;4.05;;
30970;SDS011;17651;52.262;10.498;2024-02-21T14:39:37;10.95;;;3.60;;
30970;SDS011;17651;52.262;10.498;2024-02-21T14:41:50;9.25;;;4.72;;
30970;SDS011;17651;52.262;10.498;2024-02-21T14:44:01;9.73;;;4.22;;
30970;SDS011;17651;52.262;10.498;2024-02-21T14:46:13;7.35;;;3.47;;
30970;SDS011;17651;52.262;10.498;2024-02-21T14:48:24;10.77;;;3.22;;
30970;SDS011;17651;52.262;10.498;2024-02-21T14:55:58;8.90;;;3.83;;
30970;SDS011;17651;52.262;10.498;2024-02-21T14:58:09;11.75;;;4.25;;
30970;SDS011;17651;52.262;10.498;2024-02-21T15:00:21;8.55;;;3.30;;
30970;SDS011;17651;52.262;10.498;2024-02-21T15:02:39;10.63;;;3.35;;
30970;SDS011;17651;52.262;10.498;2024-02-21T15:04:50;7.60;;;3.40;;
30970;SDS011;17651;52.262;10.498;2024-02-21T15:07:01;6.07;;;2.70;;
30970;SDS011;17651;52.262;10.498;2024-02-21T15:09:12;7.75;;;3.17;;
30970;SDS011;17651;52.262;10.498;2024-02-21T15:11:24;7.70;;;3.42;;
30970;SDS011;17651;52.262;10.498;2024-02-21T15:13:35;8.27;;;3.92;;
30970;SDS011;17651;52.262;10.498;2024-02-21T15:15:47;9.57;;;3.75;;
30970;SDS011;17651;52.262;10.498;2024-02-21T15:17:58;6.22;;;3.67;;
30970;SDS011;17651;52.262;10.498;2024-02-21T15:20:09;12.30;;;3.97;;
30970;SDS011;17651;52.262;10.498;2024-02-21T15:22:21;8.40;;;3.80;;
30970;SDS011;17651;52.262;10.498;2024-02-21T15:24:33;7.15;;;3.25;;
30970;SDS011;17651;52.262;10.498;2024-02-21T15:26:44;7.95;;;3.70;;
30970;SDS011;17651;52.262;10.498;2024-02-21T15:28:55;5.68;;;3.25;;
30970;SDS011;17651;52.262;10.498;2024-02-21T15:31:06;8.98;;;3.33;;
30970;SDS011;17651;52.262;10.498;2024-02-21T15:33:17;8.27;;;3.50;;
30970;SDS011;17651;52.262;10.498;2024-02-21T15:35:28;6.82;;;3.45;;
30970;SDS011;17651;52.262;10.498;2024-02-21T15:37:40;9.30;;;4.05;;
30970;SDS011;17651;52.262;10.498;2024-02-21T15:39:51;7.13;;;3.05;;
30970;SDS011;17651;52.262;10.498;2024-02-21T15:42:02;6.95;;;2.95;;
30970;SDS011;17651;52.262;10.498;2024-02-21T15:44:14;7.10;;;3.33;;
30970;SDS011;17651;52.262;10.498;2024-02-21T15:46:25;7.47;;;2.70;;
30970;SDS011;17651;52.262;10.498;2024-02-21T15:48:36;8.10;;;3.40;;
30970;SDS011;17651;52.262;10.498;2024-02-21T15:50:48;6.30;;;2.63;;
30970;SDS011;17651;52.262;10.498;2024-02-21T15:52:59;11.13;;;4.03;;
30970;SDS011;17651;52.262;10.498;2024-02-21T15:55:11;7.10;;;2.70;;
30970;SDS011;17651;52.262;10.498;2024-02-21T15:57:22;6.50;;;2.38;;
30970;SDS011;17651;52.262;10.498;2024-02-21T15:59:34;5.13;;;2.67;;
30970;SDS011;17651;52.262;10.498;2024-02-21T16:01:45;7.43;;;2.85;;
30970;SDS011;17651;52.262;10.498;2024-02-21T16:03:56;9.07;;;3.30;;
30970;SDS011;17651;52.262;10.498;2024-02-21T16:06:08;7.30;;;3.15;;
30970;SDS011;17651;52.262;10.498;2024-02-21T16:08:19;4.93;;;2.90;;
30970;SDS011;17651;52.262;10.498;2024-02-21T16:10:30;5.60;;;2.80;;
30970;SDS011;17651;52.262;10.498;2024-02-21T16:12:41;6.80;;;2.65;;
30970;SDS011;17651;52.262;10.498;2024-02-21T16:14:52;4.97;;;2.72;;
30970;SDS011;17651;52.262;10.498;2024-02-21T16:17:03;8.48;;;3.30;;
30970;SDS011;17651;52.262;10.498;2024-02-21T16:19:17;6.50;;;3.13;;
30970;SDS011;17651;52.262;10.498;2024-02-21T16:21:28;9.27;;;3.20;;
30970;SDS011;17651;52.262;10.498;2024-02-21T16:23:39;10.98;;;3.88;;
30970;SDS011;17651;52.262;10.498;2024-02-21T16:25:51;12.55;;;3.33;;
30970;SDS011;17651;52.262;10.498;2024-02-21T16:28:02;11.48;;;3.40;;
30970;SDS011;17651;52.262;10.498;2024-02-21T16:30:14;7.47;;;3.20;;
30970;SDS011;17651;52.262;10.498;2024-02-21T16:32:26;10.65;;;4.00;;
30970;SDS011;17651;52.262;10.498;2024-02-21T16:34:37;10.02;;;3.83;;
30970;SDS011;17651;52.262;10.498;2024-02-21T16:36:49;11.82;;;4.05;;
30970;SDS011;17651;52.262;10.498;2024-02-21T16:39:00;7.95;;;3.22;;
30970;SDS011;17651;52.262;10.498;2024-02-21T16:41:12;9.35;;;3.58;;
30970;SDS011;17651;52.262;10.498;2024-02-21T16:43:24;6.35;;;2.95;;
30970;SDS011;17651;52.262;10.498;2024-02-21T16:45:35;10.20;;;3.30;;
30970;SDS011;17651;52.262;10.498;2024-02-21T16:47:46;11.35;;;3.03;;
30970;SDS011;17651;52.262;10.498;2024-02-21T16:49:57;9.98;;;3.67;;
30970;SDS011;17651;52.262;10.498;2024-02-21T16:52:09;7.20;;;3.72;;
30970;SDS011;17651;52.262;10.498;2024-02-21T16:54:20;8.60;;;3.30;;
30970;SDS011;17651;52.262;10.498;2024-02-21T16:56:31;7.47;;;3.47;;
30970;SDS011;17651;52.262;10.498;2024-02-21T16:58:42;5.30;;;3.28;;
30970;SDS011;17651;52.262;10.498;2024-02-21T17:00:54;6.50;;;3.17;;
30970;SDS011;17651;52.262;10.498;2024-02-21T17:03:06;8.15;;;3.10;;
30970;SDS011;17651;52.262;10.498;2024-02-21T17:05:17;8.55;;;3.38;;
30970;SDS011;17651;52.262;10.498;2024-02-21T17:07:29;8.25;;;3.42;;
30970;SDS011;17651;52.262;10.498;2024-02-21T17:09:41;7.90;;;3.45;;
30970;SDS011;17651;52.262;10.498;2024-02-21T17:11:52;6.72;;;3.10;;
30970;SDS011;17651;52.262;10.498;2024-02-21T17:14:03;10.05;;;3.67;;
30970;SDS011;17651;52.262;10.498;2024-02-21T17:16:14;7.43;;;3.40;;
30970;SDS011;17651;52.262;10.498;2024-02-21T17:18:25;10.02;;;4.00;;
30970;SDS011;17651;52.262;10.498;2024-02-21T17:20:36;9.43;;;4.13;;
30970;SDS011;17651;52.262;10.498;2024-02-21T17:22:47;6.57;;;3.33;;
30970;SDS011;17651;52.262;10.498;2024-02-21T17:24:59;12.00;;;4.68;;
30970;SDS011;17651;52.262;10.498;2024-02-21T17:27:10;7.82;;;3.67;;
30970;SDS011;17651;52.262;10.498;2024-02-21T17:29:21;14.18;;;3.90;;
30970;SDS011;17651;52.262;10.498;2024-02-21T17:31:33;8.55;;;3.80;;
